»·PEaware :: LXJ508 KLAX-MMSD

LXJ508 :: KLAX-MMSD

FLIGHT INFORMATION

Flight Status: Arrived
Operator: Unknown
More flights by this operator :: More flights under this callsign
Pilot: Kolin J. (28867)
Aircraft: BOMBARDIER BD-100 CHALLENGER 300
(CL30)
More flights by this aircraft type
Origin: KLAX Los Angeles Intl
United States
Destination: MMSD Los Cabos Intl
Mexico
More flights between these airports :: More routes between these airports
Route: LAXX1 MZB OTAYY TIJ UT6 IMUSU UT25 LTO V4 ENEKO ENEK1A
File this flight plan on PilotEdge
Remarks: CALLSIGN "FLEXJET 508"
Altitude:
(Current/Filed)
43,000ft
Speed:
(Current/Filed)
450kts
Departed: 06-May-20 06:10 PM
Arrived: 06-May-20 08:06 PM
Distance/Time
Traveled:
792nm/1:55
Distance/Time
To Go:
Arrived

Flight Plot

Page will automatically refresh every two minutes.


Map Options




Map Legend


Flown Route
Filed Route
Departure Airport
Arrival Airport
Navaid (VOR, NDB)
Fix

Horizontal Profiles

Position Reports

Time Latitude Longitude Heading Altitude Ground
Speed
06-May-20 17:51 33.932709 -118.398526 269 113ft 0kts
06-May-20 17:52 33.932709 -118.398526 269 113ft 0kts
06-May-20 17:53 33.932709 -118.398526 269 113ft 0kts
06-May-20 17:54 33.932709 -118.398526 269 113ft 0kts
06-May-20 17:55 33.932709 -118.398526 269 113ft 0kts
06-May-20 17:56 33.932709 -118.398526 269 113ft 0kts
06-May-20 17:57 33.932709 -118.398526 269 113ft 0kts
06-May-20 17:58 33.932709 -118.398526 269 113ft 0kts
06-May-20 17:59 33.932709 -118.398526 269 113ft 0kts
06-May-20 18:00 33.932709 -118.398526 269 113ft 0kts
06-May-20 18:01 33.932709 -118.398526 269 113ft 0kts
06-May-20 18:02 33.932709 -118.398526 269 113ft 0kts
06-May-20 18:03 33.932709 -118.398527 269 113ft 0kts
06-May-20 18:04 33.932709 -118.398527 269 113ft 0kts
06-May-20 18:05 33.934310 -118.398162 16 111ft 11kts
06-May-20 18:06 33.935114 -118.392619 83 105ft 31kts
06-May-20 18:07 33.935871 -118.385359 84 102ft 26kts
06-May-20 18:08 33.937198 -118.384225 262 100ft 36kts
06-May-20 18:09 33.932429 -118.425340 260 1943ft 194kts
06-May-20 18:10 33.904997 -118.509028 233 5487ft 241kts
06-May-20 18:11 33.854870 -118.586289 232 8805ft 209kts
06-May-20 18:12 33.750219 -118.574610 153 10351ft 310kts
06-May-20 18:13 33.696301 -118.446665 89 11195ft 397kts
06-May-20 18:14 33.663677 -118.301837 110 12376ft 374kts
06-May-20 18:15 33.625289 -118.173759 110 13665ft 315kts
06-May-20 18:16 33.592268 -118.064279 111 16803ft 355kts
06-May-20 18:17 33.558215 -117.951794 111 19862ft 375kts
06-May-20 18:18 33.522338 -117.833753 112 22535ft 393kts
06-May-20 18:19 33.484165 -117.708674 112 24937ft 408kts
06-May-20 18:20 33.444658 -117.579644 113 27079ft 423kts
06-May-20 18:21 33.375499 -117.477493 170 28908ft 402kts
06-May-20 18:22 33.268478 -117.430893 162 30660ft 419kts
06-May-20 18:23 33.161471 -117.373397 160 32230ft 429kts
06-May-20 18:24 33.052794 -117.324025 168 34702ft 399kts
06-May-20 18:25 32.943912 -117.284157 167 35767ft 412kts
06-May-20 18:26 32.838209 -117.245714 167 37161ft 412kts
06-May-20 18:27 32.740073 -117.210172 167 38372ft 412kts
06-May-20 18:28 32.643265 -117.175187 167 39495ft 412kts
06-May-20 18:29 32.532219 -117.120924 135 40628ft 431kts
06-May-20 18:30 32.492469 -116.984383 115 41437ft 448kts
06-May-20 18:31 32.402987 -116.897877 150 41885ft 439kts
06-May-20 18:32 32.306122 -116.810441 145 41927ft 465kts
06-May-20 18:33 32.205869 -116.713247 144 42642ft 471kts
06-May-20 18:34 32.103654 -116.613570 144 42967ft 483kts
06-May-20 18:35 31.999992 -116.512661 144 42963ft 484kts
06-May-20 18:36 31.897212 -116.412907 144 42964ft 478kts
06-May-20 18:37 31.794858 -116.313878 144 42961ft 471kts
06-May-20 18:38 31.694450 -116.217010 144 42961ft 465kts
06-May-20 18:39 31.594767 -116.121119 144 42946ft 460kts
06-May-20 18:40 31.496436 -116.026797 145 42893ft 456kts
06-May-20 18:41 31.398836 -115.933438 145 42840ft 452kts
06-May-20 18:42 31.301794 -115.840867 145 42825ft 449kts
06-May-20 18:43 31.205427 -115.749190 145 42826ft 446kts
06-May-20 18:44 31.109184 -115.657881 145 42827ft 445kts
06-May-20 18:45 31.013714 -115.567560 144 42828ft 443kts
06-May-20 18:46 30.918115 -115.477370 144 42827ft 442kts
06-May-20 18:47 30.824373 -115.389120 143 42828ft 441kts
06-May-20 18:48 30.729766 -115.300288 144 42824ft 438kts
06-May-20 18:50 30.635083 -115.211633 144 42825ft 436kts
06-May-20 18:51 30.541020 -115.123781 144 42824ft 434kts
06-May-20 18:52 30.446854 -115.036065 144 42825ft 432kts
06-May-20 18:53 30.353448 -114.949278 144 42825ft 432kts
06-May-20 18:54 30.259285 -114.862015 144 42835ft 439kts
06-May-20 18:55 30.161238 -114.771391 144 42839ft 464kts
06-May-20 18:56 30.058550 -114.676709 144 42839ft 478kts
06-May-20 18:57 29.953642 -114.580242 144 42833ft 481kts
06-May-20 18:58 29.851122 -114.486240 144 42835ft 468kts
06-May-20 18:59 29.749890 -114.393683 144 42840ft 465kts
06-May-20 19:00 29.647709 -114.300500 144 42836ft 475kts
06-May-20 19:01 29.543310 -114.205546 144 42851ft 485kts
06-May-20 19:02 29.436877 -114.109007 144 42880ft 493kts
06-May-20 19:03 29.328383 -114.010871 144 42882ft 502kts
06-May-20 19:04 29.218465 -113.911723 144 42882ft 508kts
06-May-20 19:05 29.106912 -113.811383 144 42883ft 513kts
06-May-20 19:06 28.994586 -113.710607 144 42882ft 515kts
06-May-20 19:07 28.882592 -113.610372 144 42883ft 514kts
06-May-20 19:08 28.769259 -113.509227 144 42884ft 514kts
06-May-20 19:08 28.675145 -113.425447 144 42884ft 514kts
06-May-20 19:09 28.562882 -113.325765 144 42879ft 513kts
06-May-20 19:11 28.431766 -113.209696 144 42879ft 512kts
06-May-20 19:11 28.337930 -113.126860 144 42879ft 512kts
06-May-20 19:12 28.225616 -113.027962 144 42848ft 512kts
06-May-20 19:13 28.113348 -112.929377 144 42825ft 512kts
06-May-20 19:14 28.000660 -112.830691 144 42825ft 513kts
06-May-20 19:15 27.887790 -112.732109 144 42827ft 514kts
06-May-20 19:16 27.773816 -112.632842 144 42828ft 515kts
06-May-20 19:17 27.659977 -112.533958 144 42828ft 515kts
06-May-20 19:18 27.546359 -112.435530 144 42829ft 515kts
06-May-20 19:19 27.433319 -112.337865 145 42825ft 515kts
06-May-20 19:20 27.319611 -112.239887 145 42824ft 515kts
06-May-20 19:21 27.205704 -112.141996 145 42824ft 515kts
06-May-20 19:22 27.093280 -112.045618 145 42817ft 496kts
06-May-20 19:23 26.982242 -111.964389 154 42819ft 463kts
06-May-20 19:24 26.871755 -111.897322 153 42820ft 438kts
06-May-20 19:25 26.764424 -111.832323 153 42829ft 441kts
06-May-20 19:26 26.654985 -111.766195 153 42829ft 450kts
06-May-20 19:27 26.544095 -111.699336 153 42828ft 457kts
06-May-20 19:28 26.432087 -111.631952 153 42828ft 461kts
06-May-20 19:29 26.319389 -111.564305 153 42828ft 464kts
06-May-20 19:30 26.205409 -111.496042 153 42828ft 466kts
06-May-20 19:31 26.091358 -111.427888 153 42828ft 469kts
06-May-20 19:32 25.976438 -111.359369 153 42828ft 471kts
06-May-20 19:33 25.860520 -111.290416 154 42850ft 472kts
06-May-20 19:34 25.744388 -111.221486 154 42880ft 472kts
06-May-20 19:35 25.628220 -111.152689 154 42881ft 474kts
06-May-20 19:36 25.511992 -111.084008 154 42880ft 475kts
06-May-20 19:37 25.395129 -111.015105 154 42880ft 477kts
06-May-20 19:38 25.278332 -110.946394 154 42881ft 478kts
06-May-20 19:39 25.160845 -110.877428 154 42887ft 479kts
06-May-20 19:40 25.043484 -110.808719 153 42891ft 481kts
06-May-20 19:41 24.925316 -110.739650 153 42890ft 482kts
06-May-20 19:42 24.805891 -110.669990 153 42891ft 483kts
06-May-20 19:43 24.686155 -110.600318 153 42891ft 483kts
06-May-20 19:44 24.567189 -110.531245 153 42891ft 484kts
06-May-20 19:45 24.448080 -110.462238 153 42889ft 483kts
06-May-20 19:46 24.328042 -110.392843 153 40771ft 490kts
06-May-20 19:47 24.210535 -110.325054 153 37864ft 470kts
06-May-20 19:48 24.097360 -110.259906 153 34776ft 459kts
06-May-20 19:49 23.978926 -110.191871 153 31647ft 485kts
06-May-20 19:50 23.858362 -110.122748 153 28514ft 478kts
06-May-20 19:51 23.744696 -110.057719 153 25340ft 433kts
06-May-20 19:52 23.639330 -109.997568 153 22136ft 399kts
06-May-20 19:53 23.540909 -109.941474 152 18967ft 380kts
06-May-20 19:54 23.452925 -109.887904 132 15780ft 340kts
06-May-20 19:55 23.467250 -109.801335 33 12637ft 322kts
06-May-20 19:56 23.548099 -109.826511 329 9518ft 321kts
06-May-20 19:57 23.571447 -109.903759 224 6375ft 294kts
06-May-20 19:58 23.506115 -109.903745 162 6861ft 266kts
06-May-20 19:59 23.433915 -109.873948 152 5444ft 274kts
06-May-20 20:00 23.371368 -109.826272 134 4895ft 274kts
06-May-20 20:01 23.315167 -109.768479 137 4139ft 257kts
06-May-20 20:02 23.265370 -109.734743 165 2535ft 184kts
06-May-20 20:03 23.215281 -109.725900 174 1390ft 170kts
06-May-20 20:04 23.168807 -109.720901 172 484ft 156kts
06-May-20 20:05 23.146160 -109.718176 147 332ft 16kts
06-May-20 20:06 23.145687 -109.716530 352 321ft 7kts
06-May-20 20:07 23.147975 -109.716758 355 331ft 27kts
06-May-20 20:08 23.154542 -109.717333 24 350ft 9kts
06-May-20 20:09 23.154122 -109.715838 85 340ft 0kts
06-May-20 20:10 23.154122 -109.715838 85 340ft 0kts

Navigation Log

Ident Type
Flight plan parsing failed, navigation log unavailable